Time;durP1;ratioP1;P1;durP2;ratioP2;P2;SDS_P1;SDS_P2;PMS_P1;PMS_P2;Temp;Humidity;BMP_temperature;BMP_pressure;BME280_temperature;BME280_humidity;BME280_pressure;Samples;Min_cycle;Max_cycle;Signal;HPM_P1;HPM_P2
2021/04/18 00:01:29;;;;;;;4.20;1.25;;;8.70;62.30;;;;;;5017954;28;20029;-75
2021/04/18 00:03:54;;;;;;;2.13;1.02;;;8.70;62.40;;;;;;5017065;28;20033;-75
2021/04/18 00:06:20;;;;;;;3.17;1.20;;;8.80;62.70;;;;;;5018084;28;20097;-74
2021/04/18 00:08:47;;;;;;;2.05;1.38;;;8.70;62.70;;;;;;5017422;28;20482;-73
2021/04/18 00:11:14;;;;;;;1.73;0.90;;;8.80;63.00;;;;;;5017148;28;20036;-75
2021/04/18 00:13:39;;;;;;;2.03;0.90;;;8.70;63.00;;;;;;5018132;28;20092;-75
2021/04/18 00:16:05;;;;;;;2.88;0.98;;;8.70;63.00;;;;;;5033759;28;20014;-75
2021/04/18 00:18:31;;;;;;;0.82;0.82;;;8.70;63.00;;;;;;5017743;28;20103;-74
2021/04/18 00:20:57;;;;;;;8.48;1.63;;;8.70;63.10;;;;;;5033764;28;20070;-74
2021/04/18 00:23:23;;;;;;;7.47;1.33;;;8.70;63.30;;;;;;5016982;28;20121;-74
2021/04/18 00:25:48;;;;;;;4.00;1.25;;;8.70;63.40;;;;;;5017690;28;20097;-75
2021/04/18 00:28:14;;;;;;;3.53;1.40;;;8.60;63.60;;;;;;5018460;28;20493;-75
2021/04/18 00:30:40;;;;;;;2.35;1.25;;;8.60;63.60;;;;;;5017540;28;20022;-74
2021/04/18 00:33:06;;;;;;;6.05;1.40;;;8.60;63.70;;;;;;5018285;28;20025;-74
2021/04/18 00:35:31;;;;;;;2.30;1.17;;;8.60;63.90;;;;;;5017483;28;20079;-75
2021/04/18 00:37:57;;;;;;;0.90;0.77;;;8.60;63.90;;;;;;5016872;28;20026;-74
2021/04/18 00:40:24;;;;;;;2.55;1.45;;;8.60;64.00;;;;;;5017952;28;20482;-74
2021/04/18 00:42:51;;;;;;;4.40;1.25;;;8.60;64.10;;;;;;5016141;28;20026;-75
2021/04/18 00:45:17;;;;;;;3.28;1.30;;;8.60;64.80;;;;;;5018259;28;20025;-75
2021/04/18 00:47:48;;;;;;;2.47;1.40;;;8.60;64.40;;;;;;5017452;28;20022;-75
2021/04/18 00:50:24;;;;;;;1.95;1.13;;;8.60;64.50;;;;;;5018334;28;20044;-74
2021/04/18 00:52:50;;;;;;;2.53;1.20;;;8.50;64.50;;;;;;5016269;28;20033;-74
2021/04/18 00:55:17;;;;;;;4.07;1.80;;;8.60;64.60;;;;;;5016323;28;20056;-75
2021/04/18 00:57:43;;;;;;;2.70;1.05;;;8.60;64.70;;;;;;5014125;28;20038;-75
2021/04/18 01:00:09;;;;;;;4.18;1.40;;;8.50;64.70;;;;;;5014632;28;20030;-74
2021/04/18 01:02:35;;;;;;;6.07;1.23;;;8.50;64.90;;;;;;5014516;28;20034;-74
2021/04/18 01:05:02;;;;;;;2.67;1.23;;;8.50;65.00;;;;;;5014874;28;20524;-74
2021/04/18 01:07:27;;;;;;;4.20;1.70;;;8.50;65.10;;;;;;5014511;28;20029;-75
2021/04/18 01:09:54;;;;;;;2.20;1.23;;;8.50;65.20;;;;;;5014066;28;20022;-74
2021/04/18 01:12:21;;;;;;;2.67;1.30;;;8.50;65.30;;;;;;5014322;28;20402;-74
2021/04/18 01:14:46;;;;;;;3.53;1.63;;;8.40;65.40;;;;;;5013981;28;20034;-75
2021/04/18 01:17:12;;;;;;;2.63;1.10;;;8.50;65.50;;;;;;5013294;28;20029;-75
2021/04/18 01:19:38;;;;;;;4.40;1.65;;;8.40;66.20;;;;;;5029208;28;20022;-74
2021/04/18 01:22:04;;;;;;;3.75;1.17;;;8.50;65.70;;;;;;5029896;28;20141;-75
2021/04/18 01:24:30;;;;;;;2.92;1.20;;;8.40;65.70;;;;;;5013025;28;20030;-75
2021/04/18 01:26:55;;;;;;;3.05;1.25;;;8.40;65.80;;;;;;5014564;28;20029;-75
2021/04/18 01:29:22;;;;;;;3.88;1.20;;;8.30;65.90;;;;;;5013023;28;20029;-74
2021/04/18 01:31:48;;;;;;;3.35;2.00;;;8.30;66.10;;;;;;5013754;28;20029;-75
2021/04/18 01:34:14;;;;;;;11.68;6.47;;;8.30;66.20;;;;;;5013980;28;20032;-75
2021/04/18 01:36:47;;;;;;;9.63;4.53;;;8.30;66.20;;;;;;5012291;28;20076;-74
2021/04/18 01:39:14;;;;;;;9.13;5.18;;;8.30;66.30;;;;;;5014545;28;20088;-74
2021/04/18 01:41:41;;;;;;;4.70;2.15;;;8.20;66.30;;;;;;5013339;28;20477;-74
2021/04/18 01:44:12;;;;;;;5.05;3.00;;;8.20;66.40;;;;;;5014590;28;20078;-74
2021/04/18 01:46:42;;;;;;;6.37;2.80;;;8.10;66.50;;;;;;5013610;28;20026;-72
2021/04/18 01:49:08;;;;;;;5.13;2.20;;;8.10;66.60;;;;;;5012867;28;20665;-74
2021/04/18 01:51:34;;;;;;;5.07;2.47;;;8.10;66.60;;;;;;5012071;28;20076;-76
2021/04/18 01:54:01;;;;;;;8.05;2.97;;;8.00;66.60;;;;;;5014166;28;20104;-75
2021/04/18 01:56:27;;;;;;;6.95;3.35;;;8.00;66.60;;;;;;5012261;28;20111;-75
2021/04/18 01:58:53;;;;;;;3.17;1.80;;;8.00;66.70;;;;;;5013203;28;20474;-74
2021/04/18 02:01:19;;;;;;;4.35;2.55;;;8.00;66.60;;;;;;5013770;28;20025;-75
2021/04/18 02:03:45;;;;;;;7.95;2.75;;;8.00;66.70;;;;;;5013338;28;20038;-74
2021/04/18 02:06:11;;;;;;;7.00;2.17;;;8.00;66.80;;;;;;5012574;28;20481;-75
2021/04/18 02:08:36;;;;;;;6.82;1.80;;;8.00;66.80;;;;;;5027611;28;20026;-75
2021/04/18 02:11:02;;;;;;;6.25;2.08;;;7.90;66.90;;;;;;5012811;28;20382;-74
2021/04/18 02:13:30;;;;;;;4.15;2.10;;;7.90;67.00;;;;;;5012401;28;20501;-75
2021/04/18 02:15:56;;;;;;;5.63;1.92;;;7.90;67.10;;;;;;5012922;28;20088;-75
2021/04/18 02:18:22;;;;;;;5.35;1.95;;;7.90;67.10;;;;;;5013503;28;20030;-75
2021/04/18 02:20:47;;;;;;;5.18;2.17;;;7.90;67.20;;;;;;5011614;28;20018;-73
2021/04/18 02:23:13;;;;;;;4.28;1.85;;;7.90;67.30;;;;;;5013187;28;20364;-75
2021/04/18 02:25:38;;;;;;;5.05;1.55;;;7.90;67.60;;;;;;5012448;28;20049;-74
2021/04/18 02:28:05;;;;;;;4.63;1.60;;;7.80;67.70;;;;;;5013008;28;20125;-75
2021/04/18 02:30:31;;;;;;;2.80;1.40;;;7.80;67.70;;;;;;5012079;28;20120;-75
2021/04/18 02:32:56;;;;;;;2.55;1.45;;;7.80;67.80;;;;;;5012605;28;20442;-75
2021/04/18 02:35:22;;;;;;;1.90;1.23;;;7.70;68.00;;;;;;5012919;28;20381;-76
2021/04/18 02:37:48;;;;;;;4.40;1.50;;;7.70;68.30;;;;;;5027689;28;20022;-74
2021/04/18 02:40:14;;;;;;;3.22;1.58;;;7.60;68.40;;;;;;5013180;28;20022;-74
2021/04/18 02:42:40;;;;;;;3.85;1.27;;;7.60;68.60;;;;;;5011103;28;20075;-75
2021/04/18 02:45:08;;;;;;;4.72;1.38;;;7.50;68.60;;;;;;5012795;28;20394;-74
2021/04/18 02:47:33;;;;;;;4.13;1.50;;;7.60;68.70;;;;;;5011760;28;20022;-74
2021/04/18 02:49:59;;;;;;;2.33;1.27;;;7.50;68.60;;;;;;5010737;28;20040;-74
2021/04/18 02:52:25;;;;;;;4.70;1.70;;;7.50;68.60;;;;;;5012957;28;20032;-74
2021/04/18 02:54:51;;;;;;;2.85;2.30;;;7.50;68.60;;;;;;5012609;28;20462;-74
2021/04/18 02:57:17;;;;;;;5.43;1.80;;;7.50;68.60;;;;;;5012836;28;20057;-74
2021/04/18 02:59:43;;;;;;;2.58;1.33;;;7.60;68.70;;;;;;5012276;28;20018;-75
2021/04/18 03:02:08;;;;;;;3.22;1.50;;;7.60;68.70;;;;;;5011156;28;20451;-75
2021/04/18 03:04:34;;;;;;;2.67;1.75;;;7.60;68.70;;;;;;5012683;28;20121;-74
2021/04/18 03:07:00;;;;;;;2.80;1.45;;;7.60;68.60;;;;;;5012071;28;20044;-74
2021/04/18 03:09:25;;;;;;;5.32;1.45;;;7.60;68.70;;;;;;5012762;28;20139;-75
2021/04/18 03:11:51;;;;;;;5.97;1.60;;;7.60;68.70;;;;;;5010709;28;20087;-73
2021/04/18 03:14:17;;;;;;;2.15;0.93;;;7.60;68.80;;;;;;5027731;28;20486;-74
2021/04/18 03:16:43;;;;;;;5.18;1.52;;;7.60;68.90;;;;;;5011599;28;20153;-74
2021/04/18 03:19:09;;;;;;;4.65;1.38;;;7.60;69.00;;;;;;5012426;28;20022;-74
2021/04/18 03:21:34;;;;;;;1.85;1.08;;;7.60;69.10;;;;;;5011957;28;20030;-74
2021/04/18 03:24:00;;;;;;;3.22;1.40;;;7.50;69.30;;;;;;5010341;28;20466;-74
2021/04/18 03:26:26;;;;;;;3.67;1.73;;;7.50;69.40;;;;;;5011147;28;20462;-74
2021/04/18 03:28:53;;;;;;;3.30;1.60;;;7.50;69.50;;;;;;5011582;28;20137;-75
2021/04/18 03:31:18;;;;;;;4.78;1.77;;;7.40;69.50;;;;;;5012343;28;20033;-74
2021/04/18 03:33:45;;;;;;;5.43;1.75;;;7.50;69.50;;;;;;5011501;28;20033;-74
2021/04/18 03:36:12;;;;;;;4.70;1.58;;;7.50;69.50;;;;;;5012217;28;20382;-74
2021/04/18 03:38:38;;;;;;;3.90;1.83;;;7.50;69.60;;;;;;5012641;28;20065;-75
2021/04/18 03:41:04;;;;;;;4.88;1.90;;;7.50;69.50;;;;;;5010575;28;20041;-75
2021/04/18 03:43:29;;;;;;;3.45;1.80;;;7.50;69.60;;;;;;5012219;28;20034;-74
2021/04/18 03:45:55;;;;;;;4.47;1.85;;;7.50;69.60;;;;;;5010195;28;20018;-75
2021/04/18 03:48:21;;;;;;;6.15;1.85;;;7.60;69.70;;;;;;5012631;28;20026;-75
2021/04/18 03:50:47;;;;;;;4.15;1.80;;;7.60;69.70;;;;;;5011359;28;20054;-74
2021/04/18 03:53:12;;;;;;;4.95;2.03;;;7.50;69.70;;;;;;5027207;28;20458;-74
2021/04/18 03:55:38;;;;;;;3.20;1.13;;;7.50;69.80;;;;;;5011410;28;20052;-74
2021/04/18 03:58:03;;;;;;;3.95;1.55;;;7.50;69.90;;;;;;5011589;28;20116;-74
2021/04/18 04:00:29;;;;;;;3.55;1.63;;;7.50;69.90;;;;;;5010686;28;20088;-76
2021/04/18 04:02:55;;;;;;;4.05;1.67;;;7.40;70.00;;;;;;5026345;28;20034;-75
2021/04/18 04:05:20;;;;;;;4.80;1.73;;;7.40;70.10;;;;;;5010722;28;20030;-75
2021/04/18 04:07:46;;;;;;;3.60;1.60;;;7.40;70.10;;;;;;5011362;28;20438;-75
2021/04/18 04:10:12;;;;;;;3.55;1.65;;;7.40;70.30;;;;;;5012006;28;20026;-74
2021/04/18 04:12:38;;;;;;;4.40;1.65;;;7.40;70.50;;;;;;5011878;28;20044;-75
2021/04/18 04:15:05;;;;;;;5.72;1.67;;;7.40;70.60;;;;;;5026289;28;20033;-75
2021/04/18 04:17:31;;;;;;;6.78;1.88;;;7.40;70.70;;;;;;5011488;28;20026;-74
2021/04/18 04:19:56;;;;;;;4.05;1.90;;;7.40;70.60;;;;;;5011263;28;20030;-75
2021/04/18 04:22:22;;;;;;;3.50;1.65;;;7.40;70.70;;;;;;5010741;28;20378;-75
2021/04/18 04:24:50;;;;;;;5.15;1.58;;;7.30;70.70;;;;;;5011404;28;20040;-75
2021/04/18 04:27:16;;;;;;;3.53;2.00;;;7.30;70.80;;;;;;5011882;28;20050;-74
2021/04/18 04:29:42;;;;;;;4.47;1.50;;;7.30;71.00;;;;;;5011781;28;20497;-74
2021/04/18 04:32:08;;;;;;;4.40;2.03;;;7.30;71.10;;;;;;5012177;28;20033;-74
2021/04/18 04:34:34;;;;;;;7.35;1.95;;;7.20;71.10;;;;;;5030667;28;20022;-74
2021/04/18 04:36:59;;;;;;;3.25;1.70;;;7.20;71.20;;;;;;5013534;28;20029;-74
2021/04/18 04:39:25;;;;;;;2.13;1.35;;;7.20;71.00;;;;;;5014020;28;20103;-74
2021/04/18 04:41:51;;;;;;;4.75;1.63;;;7.20;71.00;;;;;;5029475;28;20117;-74
2021/04/18 04:44:16;;;;;;;2.50;1.27;;;7.30;71.10;;;;;;5014870;28;20038;-75
2021/04/18 04:46:44;;;;;;;2.95;1.38;;;7.20;71.00;;;;;;5015205;28;20076;-75
2021/04/18 04:49:10;;;;;;;2.22;1.27;;;7.20;71.20;;;;;;5014253;28;20374;-74
2021/04/18 04:51:36;;;;;;;4.93;1.45;;;7.10;71.30;;;;;;5015112;28;20026;-74
2021/04/18 04:54:01;;;;;;;2.63;1.52;;;7.10;71.30;;;;;;5014444;28;20022;-75
2021/04/18 04:56:27;;;;;;;4.80;1.90;;;7.10;71.30;;;;;;5014739;28;20057;-74
2021/04/18 04:58:53;;;;;;;2.35;1.38;;;7.10;71.20;;;;;;5013076;28;20192;-74
2021/04/18 05:01:18;;;;;;;3.38;1.70;;;7.20;71.20;;;;;;5030196;28;20014;-74
2021/04/18 05:03:44;;;;;;;4.45;1.77;;;7.20;71.20;;;;;;5015019;28;20041;-74
2021/04/18 05:06:09;;;;;;;8.07;2.15;;;7.20;71.20;;;;;;5014290;28;20026;-75
2021/04/18 05:08:35;;;;;;;3.30;1.70;;;7.20;71.10;;;;;;5015119;28;20033;-73
2021/04/18 05:11:01;;;;;;;8.30;2.45;;;7.20;71.20;;;;;;5014156;28;20037;-75
2021/04/18 05:13:26;;;;;;;6.13;2.25;;;7.20;71.20;;;;;;5013415;28;20033;-75
2021/04/18 05:15:52;;;;;;;5.20;1.95;;;7.20;71.20;;;;;;5013820;28;20026;-74
2021/04/18 05:18:17;;;;;;;2.80;1.83;;;7.20;71.10;;;;;;5014485;28;20072;-74
2021/04/18 05:20:43;;;;;;;5.20;2.10;;;7.20;71.20;;;;;;5013240;28;20118;-73
2021/04/18 05:23:09;;;;;;;5.32;2.17;;;7.20;71.20;;;;;;5013774;28;20030;-73
2021/04/18 05:25:34;;;;;;;4.82;2.83;;;7.30;71.30;;;;;;5014477;28;20026;-75
2021/04/18 05:28:00;;;;;;;8.82;2.30;;;7.30;71.30;;;;;;5012470;28;20085;-74
2021/04/18 05:30:26;;;;;;;5.35;1.88;;;7.30;71.30;;;;;;5029564;28;20113;-74
2021/04/18 05:32:52;;;;;;;3.38;1.90;;;7.30;71.40;;;;;;5013786;28;20382;-74
2021/04/18 05:35:17;;;;;;;4.88;2.35;;;7.30;71.40;;;;;;5014230;28;20068;-74
2021/04/18 05:37:43;;;;;;;3.88;2.05;;;7.30;71.40;;;;;;5012821;28;20022;-74
2021/04/18 05:40:10;;;;;;;3.50;1.90;;;7.30;71.40;;;;;;5013643;28;20056;-75
2021/04/18 05:42:35;;;;;;;4.97;1.83;;;7.40;71.50;;;;;;5013729;28;20014;-74
2021/04/18 05:45:02;;;;;;;4.57;1.90;;;7.40;71.50;;;;;;5013646;28;20348;-74
2021/04/18 05:47:27;;;;;;;3.97;1.75;;;7.40;71.50;;;;;;5014091;28;20462;-74
2021/04/18 05:49:53;;;;;;;3.60;1.85;;;7.40;71.50;;;;;;5013406;28;20022;-75
2021/04/18 05:52:19;;;;;;;4.53;1.50;;;7.50;71.50;;;;;;5014095;28;20474;-74
2021/04/18 05:54:45;;;;;;;2.88;1.48;;;7.40;71.60;;;;;;5014010;28;20037;-75
2021/04/18 05:57:11;;;;;;;3.17;1.92;;;7.40;71.70;;;;;;5013314;28;20344;-75
2021/04/18 05:59:36;;;;;;;3.90;1.60;;;7.40;71.70;;;;;;5013823;28;20034;-74
2021/04/18 06:02:02;;;;;;;5.72;1.70;;;7.40;71.70;;;;;;5011778;28;20109;-75
2021/04/18 06:04:28;;;;;;;3.47;1.52;;;7.50;71.60;;;;;;5013858;28;20371;-75
2021/04/18 06:06:54;;;;;;;3.97;1.92;;;7.60;71.50;;;;;;5028173;28;20055;-74
2021/04/18 06:09:19;;;;;;;4.32;1.35;;;7.50;71.40;;;;;;5013561;28;20118;-75
2021/04/18 06:11:45;;;;;;;3.60;1.77;;;7.60;71.50;;;;;;5013874;28;20141;-74
2021/04/18 06:14:11;;;;;;;5.70;1.90;;;7.60;71.50;;;;;;5028128;28;20029;-75
2021/04/18 06:16:36;;;;;;;3.92;2.08;;;7.70;71.60;;;;;;5013854;28;20026;-76
2021/04/18 06:19:02;;;;;;;4.88;1.88;;;7.70;71.40;;;;;;5012874;28;20026;-74
2021/04/18 06:21:28;;;;;;;5.65;2.28;;;7.80;71.40;;;;;;5012123;28;20030;-74
2021/04/18 06:23:54;;;;;;;5.22;1.85;;;7.80;71.40;;;;;;5012765;28;20478;-75
2021/04/18 06:26:19;;;;;;;3.13;1.60;;;7.80;71.40;;;;;;5013343;28;20026;-74
2021/04/18 06:28:45;;;;;;;5.13;1.52;;;7.90;71.30;;;;;;5013165;28;20022;-74
2021/04/18 06:31:11;;;;;;;2.78;1.60;;;7.90;71.30;;;;;;5012599;28;20045;-74
2021/04/18 06:33:37;;;;;;;3.72;1.90;;;8.00;71.30;;;;;;5013094;28;20113;-73
2021/04/18 06:36:03;;;;;;;6.10;2.05;;;8.00;71.20;;;;;;5011281;28;20032;-74
2021/04/18 06:38:28;;;;;;;3.58;1.70;;;8.10;71.30;;;;;;5013233;28;20022;-75
2021/04/18 06:40:55;;;;;;;3.47;1.45;;;8.10;71.30;;;;;;5013099;28;20033;-75
2021/04/18 06:43:22;;;;;;;3.55;1.45;;;8.20;71.30;;;;;;5013373;28;20466;-75
2021/04/18 06:45:54;;;;;;;5.43;1.60;;;8.30;71.30;;;;;;5013016;28;20041;-75
2021/04/18 06:48:20;;;;;;;4.00;1.83;;;8.30;71.30;;;;;;5012600;28;20030;-74
2021/04/18 06:50:47;;;;;;;2.92;1.38;;;8.30;71.20;;;;;;5011066;28;20080;-74
2021/04/18 06:53:13;;;;;;;4.82;1.80;;;8.40;71.30;;;;;;5010957;28;20026;-75
2021/04/18 06:55:40;;;;;;;6.07;1.80;;;8.50;71.30;;;;;;5011670;28;20088;-75
2021/04/18 06:58:06;;;;;;;2.92;1.65;;;8.50;71.00;;;;;;5012263;28;20030;-74
2021/04/18 07:00:32;;;;;;;5.03;2.00;;;8.60;70.80;;;;;;5012071;28;20036;-74
2021/04/18 07:03:13;;;;;;;5.60;2.00;;;8.70;70.60;;;;;;5012261;28;20034;-74
2021/04/18 07:05:46;;;;;;;3.55;1.45;;;8.80;70.40;;;;;;5012656;28;20065;-74
2021/04/18 07:08:19;;;;;;;2.67;1.25;;;8.90;70.30;;;;;;5010822;28;20025;-74
2021/04/18 07:10:45;;;;;;;1.92;1.02;;;8.90;70.10;;;;;;5012486;28;20088;-75
2021/04/18 07:13:13;;;;;;;2.58;1.20;;;8.90;70.00;;;;;;5011500;28;20033;-74
2021/04/18 07:15:42;;;;;;;1.85;1.10;;;9.00;69.90;;;;;;5012678;28;20030;-74
2021/04/18 07:18:09;;;;;;;5.68;1.55;;;9.00;69.70;;;;;;5011802;28;20033;-74
2021/04/18 07:20:51;;;;;;;3.70;1.70;;;9.10;69.60;;;;;;5012499;28;20068;-74
2021/04/18 07:23:25;;;;;;;2.97;1.40;;;9.20;69.60;;;;;;5011863;28;20034;-74
2021/04/18 07:25:52;;;;;;;3.28;1.48;;;9.20;69.70;;;;;;5011254;28;20021;-74
2021/04/18 07:28:25;;;;;;;2.55;1.17;;;9.20;69.70;;;;;;5010154;28;20241;-75
2021/04/18 07:30:54;;;;;;;2.40;1.00;;;9.20;69.70;;;;;;5010878;28;20481;-75
2021/04/18 07:33:21;;;;;;;2.28;1.20;;;9.30;69.50;;;;;;5011619;28;20034;-75
2021/04/18 07:35:46;;;;;;;3.10;1.25;;;9.30;69.40;;;;;;5012553;28;20041;-74
2021/04/18 07:38:41;;;;;;;2.10;1.00;;;9.40;69.30;;;;;;5010181;28;20026;-74
2021/04/18 07:41:19;;;;;;;3.20;1.25;;;9.40;68.90;;;;;;5002858;28;20038;-73
2021/04/18 07:43:46;;;;;;;4.65;1.13;;;9.50;68.80;;;;;;5010707;28;20036;-74
2021/04/18 07:46:12;;;;;;;2.55;1.02;;;9.60;68.60;;;;;;5010171;28;20097;-74
2021/04/18 07:48:38;;;;;;;2.38;0.93;;;9.60;68.30;;;;;;5011755;28;20062;-74
2021/04/18 07:51:04;;;;;;;2.42;1.05;;;9.70;68.00;;;;;;5010100;28;20024;-75
2021/04/18 07:53:30;;;;;;;3.50;1.30;;;9.70;67.50;;;;;;5011935;28;20521;-74
2021/04/18 07:55:56;;;;;;;5.70;1.15;;;9.80;67.20;;;;;;5011793;28;20165;-75
2021/04/18 07:58:22;;;;;;;2.28;1.10;;;9.90;66.50;;;;;;5010120;28;20053;-75
2021/04/18 08:00:48;;;;;;;1.55;0.90;;;10.00;65.90;;;;;;5011984;28;20427;-76
2021/04/18 08:03:15;;;;;;;3.13;1.05;;;10.10;65.60;;;;;;5011334;28;20044;-76
2021/04/18 08:05:42;;;;;;;4.10;0.93;;;10.30;65.30;;;;;;5012510;28;20099;-73
2021/04/18 08:08:07;;;;;;;1.70;0.85;;;10.50;65.00;;;;;;5015347;28;20036;-74
2021/04/18 08:10:38;;;;;;;4.03;1.10;;;10.60;64.60;;;;;;5015890;28;20026;-74
2021/04/18 08:13:15;;;;;;;3.22;1.00;;;10.70;64.30;;;;;;5013999;28;20033;-74
2021/04/18 08:15:46;;;;;;;2.95;1.38;;;10.80;64.10;;;;;;5014587;28;20033;-75
2021/04/18 08:18:14;;;;;;;3.07;0.90;;;10.80;63.80;;;;;;5015198;28;20053;-75
2021/04/18 08:20:45;;;;;;;3.63;0.90;;;10.90;63.50;;;;;;5014431;28;20087;-74
2021/04/18 08:23:18;;;;;;;3.25;1.40;;;10.90;63.40;;;;;;5014863;28;20037;-74
2021/04/18 08:26:10;;;;;;;3.25;1.38;;;11.00;62.90;;;;;;5015421;28;20433;-74
2021/04/18 08:29:09;;;;;;;3.47;1.23;;;11.10;62.90;;;;;;5015885;28;20068;-74
2021/04/18 08:31:51;;;;;;;1.63;1.08;;;11.10;62.70;;;;;;4993298;28;20030;-74
2021/04/18 08:34:28;;;;;;;;;;;11.10;62.80;;;;;;5015398;28;20029;-75
2021/04/18 08:36:56;;;;;;;2.55;0.95;;;11.00;62.90;;;;;;5014135;28;19909;-74
2021/04/18 08:39:28;;;;;;;1.23;1.05;;;11.10;62.70;;;;;;5014855;28;20052;-75
2021/04/18 08:41:56;;;;;;;2.75;0.90;;;11.20;62.60;;;;;;5015512;28;20036;-74
2021/04/18 08:44:43;;;;;;;3.03;1.10;;;11.20;62.60;;;;;;5014624;28;20037;-74
2021/04/18 08:47:14;;;;;;;1.70;0.80;;;11.20;62.50;;;;;;5014500;28;20501;-74
2021/04/18 08:49:45;;;;;;;;;;;11.20;62.50;;;;;;5014151;28;20488;-74
2021/04/18 08:52:34;;;;;;;1.30;1.00;;;11.20;62.50;;;;;;5014450;28;20235;-74
2021/04/18 08:55:12;;;;;;;1.35;0.70;;;11.30;62.30;;;;;;5014729;28;20034;-74
2021/04/18 08:57:38;;;;;;;2.45;1.23;;;11.30;61.90;;;;;;5015059;28;20049;-75
2021/04/18 09:00:07;;;;;;;4.05;0.95;;;11.30;61.90;;;;;;5013629;28;20386;-75
2021/04/18 09:02:33;;;;;;;2.70;0.80;;;11.30;61.90;;;;;;5014903;28;20022;-74
2021/04/18 09:05:00;;;;;;;1.45;0.80;;;11.20;61.80;;;;;;5014965;28;20037;-74
2021/04/18 09:07:33;;;;;;;1.20;0.63;;;11.30;61.50;;;;;;5014281;28;20035;-74
2021/04/18 09:10:01;;;;;;;3.70;0.88;;;11.30;61.50;;;;;;5014881;28;20030;-74
2021/04/18 09:12:27;;;;;;;1.58;0.95;;;11.40;61.30;;;;;;5014557;28;20465;-74
2021/04/18 09:14:53;;;;;;;1.38;0.75;;;11.50;61.30;;;;;;5013855;28;20458;-75
2021/04/18 09:17:30;;;;;;;2.50;1.10;;;11.50;61.00;;;;;;5012250;28;20026;-74
2021/04/18 09:20:02;;;;;;;4.60;1.20;;;11.50;60.60;;;;;;5014710;28;20030;-75
2021/04/18 09:22:30;;;;;;;2.15;1.10;;;11.60;60.10;;;;;;5013926;28;20023;-74
2021/04/18 09:25:09;;;;;;;2.35;1.20;;;11.60;60.00;;;;;;5014424;28;20030;-74
2021/04/18 09:27:40;;;;;;;1.83;0.98;;;11.70;60.00;;;;;;5013290;28;20351;-74
2021/04/18 09:30:07;;;;;;;;;;;11.70;59.70;;;;;;5013538;28;20014;-74
2021/04/18 09:32:45;;;;;;;1.40;0.80;;;11.70;59.80;;;;;;5012698;28;19905;-74
2021/04/18 09:35:13;;;;;;;2.67;0.90;;;11.80;59.70;;;;;;5013954;28;20072;-75
2021/04/18 09:37:49;;;;;;;2.83;1.10;;;11.80;59.20;;;;;;5014246;28;20076;-73
2021/04/18 09:40:16;;;;;;;1.92;0.93;;;11.90;58.90;;;;;;5013792;28;20025;-74
2021/04/18 09:42:45;;;;;;;1.60;0.70;;;11.90;58.70;;;;;;5014145;28;20024;-74
2021/04/18 09:45:20;;;;;;;1.95;0.90;;;12.00;58.50;;;;;;5012234;28;20382;-75
2021/04/18 09:47:48;;;;;;;2.33;0.93;;;12.10;58.10;;;;;;5013728;28;20382;-74
2021/04/18 09:50:30;;;;;;;2.80;1.15;;;12.10;57.60;;;;;;5013278;28;20188;-74
2021/04/18 09:53:13;;;;;;;6.90;1.42;;;12.20;57.50;;;;;;5013933;28;20022;-74
2021/04/18 09:55:59;;;;;;;2.15;1.17;;;12.30;57.00;;;;;;5013668;28;20466;-75
2021/04/18 09:58:34;;;;;;;1.85;1.10;;;12.40;56.90;;;;;;5013210;28;20068;-74
2021/04/18 10:01:00;;;;;;;2.17;1.40;;;12.40;56.50;;;;;;5013921;28;20022;-74
2021/04/18 10:03:37;;;;;;;3.00;0.85;;;12.60;56.30;;;;;;5011602;28;20378;-74
2021/04/18 10:06:06;;;;;;;2.67;0.98;;;12.70;55.20;;;;;;5013601;28;20470;-74
2021/04/18 10:08:34;;;;;;;1.38;0.90;;;12.80;55.10;;;;;;5013031;28;20025;-76
2021/04/18 10:11:05;;;;;;;2.53;1.58;;;13.00;55.10;;;;;;5012184;28;20026;-74
2021/04/18 10:13:54;;;;;;;1.63;1.00;;;13.10;54.50;;;;;;5012737;28;20037;-75
2021/04/18 10:16:33;;;;;;;2.80;1.10;;;13.20;54.50;;;;;;5011383;28;20044;-75
2021/04/18 10:19:06;;;;;;;2.33;1.08;;;13.30;54.30;;;;;;5013085;28;20026;-74
2021/04/18 10:21:32;;;;;;;2.60;0.80;;;13.50;54.20;;;;;;5011319;28;20037;-74
2021/04/18 10:23:58;;;;;;;2.78;0.95;;;13.50;53.70;;;;;;5028453;28;20030;-75
2021/04/18 10:26:24;;;;;;;2.88;1.10;;;13.70;53.60;;;;;;5012890;28;20026;-74
2021/04/18 10:28:53;;;;;;;2.03;1.08;;;13.80;53.50;;;;;;5013049;28;20026;-75
2021/04/18 10:31:20;;;;;;;3.72;2.05;;;13.90;53.00;;;;;;5011874;28;20021;-74
2021/04/18 10:33:46;;;;;;;2.28;1.00;;;13.90;52.80;;;;;;5012207;28;20022;-74
2021/04/18 10:36:13;;;;;;;2.95;1.02;;;14.00;52.60;;;;;;5012893;28;20030;-76
2021/04/18 10:38:39;;;;;;;2.08;1.27;;;14.10;52.70;;;;;;5013188;28;20088;-73
2021/04/18 10:41:06;;;;;;;1.63;0.90;;;14.20;52.70;;;;;;5013207;28;20018;-74
2021/04/18 10:43:32;;;;;;;2.30;0.82;;;14.30;52.80;;;;;;5012116;28;20474;-75
2021/04/18 10:45:58;;;;;;;2.15;1.00;;;14.30;52.90;;;;;;5012853;28;20458;-73
2021/04/18 10:48:24;;;;;;;4.47;1.10;;;14.30;53.20;;;;;;5011088;28;20069;-75
2021/04/18 10:50:50;;;;;;;3.15;1.33;;;14.30;53.00;;;;;;5011387;28;20430;-73
2021/04/18 10:53:15;;;;;;;2.22;1.20;;;14.30;53.10;;;;;;5027381;28;20118;-74
2021/04/18 10:55:41;;;;;;;2.97;1.58;;;14.40;53.00;;;;;;5010897;28;20462;-74
2021/04/18 10:58:08;;;;;;;2.58;1.35;;;14.50;52.70;;;;;;5012762;28;20406;-75
2021/04/18 11:00:34;;;;;;;2.13;1.15;;;14.60;52.50;;;;;;5010875;28;20278;-74
2021/04/18 11:02:59;;;;;;;3.03;1.13;;;14.70;52.30;;;;;;5011288;28;20025;-74
2021/04/18 11:05:25;;;;;;;2.33;1.13;;;14.90;52.30;;;;;;5012152;28;20053;-75
2021/04/18 11:07:51;;;;;;;3.00;1.42;;;15.00;52.20;;;;;;5012610;28;20053;-74
2021/04/18 11:10:16;;;;;;;3.70;1.38;;;15.20;52.10;;;;;;5010316;28;20425;-75
2021/04/18 11:12:42;;;;;;;1.85;1.13;;;15.40;51.90;;;;;;5012051;28;20033;-73
2021/04/18 11:15:12;;;;;;;2.60;1.40;;;15.50;51.80;;;;;;5012028;28;20052;-74
2021/04/18 11:17:38;;;;;;;3.72;1.50;;;15.50;51.60;;;;;;5011770;28;20032;-74
2021/04/18 11:20:06;;;;;;;3.53;1.33;;;15.50;51.70;;;;;;5012546;28;20466;-75
2021/04/18 11:22:32;;;;;;;2.65;1.27;;;15.60;51.70;;;;;;5010113;28;20030;-75
2021/04/18 11:25:00;;;;;;;3.40;1.85;;;15.70;51.70;;;;;;5012360;28;20088;-74
2021/04/18 11:27:27;;;;;;;4.18;1.80;;;15.70;51.70;;;;;;5011696;28;20459;-75
2021/04/18 11:29:53;;;;;;;3.75;1.33;;;15.80;51.50;;;;;;5011107;28;20026;-75
2021/04/18 11:32:19;;;;;;;2.15;1.25;;;15.80;51.50;;;;;;5026994;28;20026;-75
2021/04/18 11:34:45;;;;;;;2.88;1.55;;;15.90;51.30;;;;;;5012180;28;20018;-74
2021/04/18 11:37:11;;;;;;;3.67;1.65;;;16.00;51.00;;;;;;5012202;28;20037;-74
2021/04/18 11:39:37;;;;;;;2.72;1.38;;;16.10;51.30;;;;;;5010051;28;20253;-75
2021/04/18 11:42:03;;;;;;;5.32;1.88;;;16.30;51.20;;;;;;5010531;28;20149;-74
2021/04/18 11:44:28;;;;;;;1.70;1.20;;;16.40;51.00;;;;;;5011463;28;20117;-75
2021/04/18 11:46:54;;;;;;;3.40;1.38;;;16.60;50.90;;;;;;5011908;28;20215;-74
2021/04/18 11:49:21;;;;;;;3.53;1.45;;;16.70;50.30;;;;;;5010108;28;20025;-75
2021/04/18 11:51:47;;;;;;;3.30;1.60;;;16.80;50.30;;;;;;5010828;28;20120;-74
2021/04/18 11:54:13;;;;;;;2.60;1.25;;;17.00;50.00;;;;;;5012030;28;20121;-75
2021/04/18 11:56:38;;;;;;;3.25;1.40;;;17.10;50.00;;;;;;5009844;28;20049;-75
2021/04/18 11:59:05;;;;;;;2.40;1.35;;;17.20;50.00;;;;;;5027120;28;20176;-75
2021/04/18 12:01:32;;;;;;;4.32;1.52;;;17.20;49.50;;;;;;5009863;28;20018;-74
2021/04/18 12:03:58;;;;;;;1.92;1.00;;;17.20;49.50;;;;;;5011884;28;20042;-75
2021/04/18 12:06:23;;;;;;;2.80;1.88;;;17.40;49.50;;;;;;5011316;28;20049;-75
2021/04/18 12:08:49;;;;;;;4.68;1.77;;;17.60;49.10;;;;;;5011748;28;20026;-74
2021/04/18 12:11:15;;;;;;;1.88;1.00;;;17.70;48.80;;;;;;5011926;28;20084;-74
2021/04/18 12:13:40;;;;;;;2.60;1.02;;;17.70;48.30;;;;;;5002982;28;20433;-75
2021/04/18 12:16:06;;;;;;;7.35;2.53;;;17.80;48.20;;;;;;5022121;28;20470;-77
2021/04/18 12:18:32;;;;;;;4.05;1.25;;;18.00;48.20;;;;;;5008012;28;20026;-77
2021/04/18 12:20:57;;;;;;;3.13;1.42;;;18.10;48.00;;;;;;4995769;28;20034;-78
2021/04/18 12:23:23;;;;;;;3.28;1.50;;;18.10;47.80;;;;;;4989107;28;20089;-76
2021/04/18 12:25:49;;;;;;;3.03;1.48;;;18.20;47.70;;;;;;4989959;28;20538;-77
2021/04/18 12:28:14;;;;;;;2.90;1.35;;;18.30;47.70;;;;;;4987991;28;20033;-78
2021/04/18 12:30:40;;;;;;;2.38;0.90;;;18.50;47.20;;;;;;4989070;28;20289;-77
2021/04/18 12:33:07;;;;;;;3.25;1.30;;;18.50;47.00;;;;;;4988702;28;20022;-77
2021/04/18 12:35:32;;;;;;;3.10;0.98;;;18.50;47.00;;;;;;4988096;28;20025;-77
2021/04/18 12:37:58;;;;;;;3.95;1.05;;;18.50;47.10;;;;;;4988497;28;20019;-79
2021/04/18 12:40:24;;;;;;;3.17;1.02;;;18.40;46.80;;;;;;4989570;28;20081;-80
2021/04/18 12:42:50;;;;;;;1.55;0.95;;;18.40;47.00;;;;;;4988431;28;20471;-79
2021/04/18 12:45:16;;;;;;;3.35;1.08;;;18.50;47.10;;;;;;4989964;28;20034;-78
2021/04/18 12:47:41;;;;;;;1.92;0.75;;;18.60;47.00;;;;;;4989245;28;20283;-78
2021/04/18 12:50:08;;;;;;;1.65;1.02;;;18.60;46.60;;;;;;4989518;28;20563;-79
2021/04/18 12:52:34;;;;;;;3.00;1.20;;;18.70;46.50;;;;;;4989919;28;20035;-76
2021/04/18 12:55:00;;;;;;;3.58;1.17;;;18.70;46.50;;;;;;5007605;28;20077;-77